createdAt,value
2023-04-28T00:00:10.052Z,6.6
2023-04-28T00:02:09.482Z,6.5
2023-04-28T00:04:09.868Z,6.5
2023-04-28T00:06:10.373Z,6.7
2023-04-28T00:08:10.314Z,6.9
2023-04-28T00:10:10.670Z,6.9
2023-04-28T00:12:10.441Z,6.8
2023-04-28T00:14:10.592Z,6.8
2023-04-28T00:16:10.865Z,6.5
2023-04-28T00:18:11.286Z,6.6
2023-04-28T00:20:11.779Z,7.1
2023-04-28T00:22:11.444Z,7.3
2023-04-28T00:24:11.609Z,7.2
2023-04-28T00:26:13.178Z,7.6
2023-04-28T00:28:14.170Z,7.4
2023-04-28T00:30:12.604Z,7.3
2023-04-28T00:32:12.303Z,7.3
2023-04-28T00:34:12.403Z,7.3
2023-04-28T00:36:12.694Z,8
2023-04-28T00:38:12.800Z,6.7
2023-04-28T00:40:13.358Z,6.7
2023-04-28T00:42:13.621Z,7.1
2023-04-28T00:44:13.366Z,7.1
2023-04-28T00:46:20.445Z,7.1
2023-04-28T00:48:13.884Z,8.4
2023-04-28T00:50:15.709Z,8.2
2023-04-28T00:52:14.031Z,8.1
2023-04-28T00:54:14.552Z,7.4
2023-04-28T00:56:14.601Z,6.9
2023-04-28T00:58:14.679Z,7.2
2023-04-28T01:00:15.735Z,7.8
2023-04-28T01:02:15.111Z,7
2023-04-28T01:04:17.312Z,7.4
2023-04-28T01:06:17.181Z,7.3
2023-04-28T01:08:15.811Z,7.7
2023-04-28T01:10:16.094Z,7.7
2023-04-28T01:12:18.167Z,7.5
2023-04-28T01:14:16.384Z,7.9
2023-04-28T01:16:16.063Z,8.3
2023-04-28T01:18:16.766Z,8.9
2023-04-28T01:20:16.391Z,8.9
2023-04-28T01:22:17.352Z,8.7
2023-04-28T01:24:18.187Z,8.7
2023-04-28T01:26:16.823Z,8.8
2023-04-28T01:28:17.173Z,9.2
2023-04-28T01:30:17.483Z,9.5
2023-04-28T01:32:17.326Z,9
2023-04-28T01:34:17.897Z,9.2
2023-04-28T01:36:17.733Z,9.4
2023-04-28T01:38:18.061Z,9.3
2023-04-28T01:40:18.196Z,8.9
2023-04-28T01:42:18.167Z,9.3
2023-04-28T01:44:18.570Z,9.9
2023-04-28T01:46:18.680Z,9.7
2023-04-28T01:48:20.242Z,9.8
2023-04-28T01:50:18.865Z,9.3
2023-04-28T01:52:19.032Z,9.3
2023-04-28T01:54:19.304Z,9.4
2023-04-28T01:56:19.339Z,10
2023-04-28T01:58:19.603Z,9.5
2023-04-28T02:00:24.383Z,10.2
2023-04-28T02:02:19.897Z,9.5
2023-04-28T02:04:20.042Z,9.7
2023-04-28T02:06:20.158Z,10
2023-04-28T02:08:20.249Z,10.3
2023-04-28T02:10:20.336Z,9.8
2023-04-28T02:12:20.650Z,10.2
2023-04-28T02:14:20.696Z,10.3
2023-04-28T02:16:23.863Z,11.3
2023-04-28T02:18:21.484Z,10.5
2023-04-28T02:20:22.285Z,11.1
2023-04-28T02:22:21.440Z,11.3
2023-04-28T02:24:21.616Z,11.6
2023-04-28T02:26:25.206Z,11.2
2023-04-28T02:28:22.424Z,10.5
2023-04-28T02:30:22.368Z,10.9
2023-04-28T02:32:24.995Z,10.3
2023-04-28T02:34:22.277Z,10
2023-04-28T02:36:22.603Z,10
2023-04-28T02:38:23.124Z,10.5
2023-04-28T02:40:22.756Z,10.8
2023-04-28T02:42:23.126Z,10.5
2023-04-28T02:44:23.292Z,11.1
2023-04-28T02:46:23.357Z,10.8
2023-04-28T02:48:23.960Z,10.9
2023-04-28T02:50:23.645Z,10.9
2023-04-28T02:52:23.755Z,10.2
2023-04-28T02:54:24.332Z,10.3
2023-04-28T02:56:24.190Z,10.2
2023-04-28T02:58:24.572Z,11.1
2023-04-28T03:00:24.811Z,10.3
2023-04-28T03:02:24.701Z,9.7
2023-04-28T03:04:25.111Z,9.7
2023-04-28T03:06:25.221Z,8.1
2023-04-28T03:08:27.196Z,8.2
2023-04-28T03:10:25.757Z,7.6
2023-04-28T03:12:25.749Z,7.7
2023-04-28T03:14:25.914Z,7.6
2023-04-28T03:16:26.564Z,7.5
2023-04-28T03:18:26.587Z,6.7
2023-04-28T03:20:26.714Z,6.6
2023-04-28T03:22:26.967Z,6.9
2023-04-28T03:24:27.395Z,6.4
2023-04-28T03:26:28.167Z,6
2023-04-28T03:28:28.121Z,6.3
2023-04-28T03:30:28.164Z,6.1
2023-04-28T03:32:28.587Z,6.3
2023-04-28T03:34:28.823Z,6.4
2023-04-28T03:36:30.451Z,5.7
2023-04-28T03:38:29.879Z,5.9
2023-04-28T03:40:45.715Z,5.8
2023-04-28T03:42:44.025Z,6
2023-04-28T03:44:47.994Z,6.2
2023-04-28T03:46:33.211Z,7
2023-04-28T03:48:31.425Z,5.9
2023-04-28T03:50:31.502Z,5.9
2023-04-28T03:52:32.012Z,6.2
2023-04-28T03:54:32.937Z,5.8
2023-04-28T03:56:34.816Z,5.9
2023-04-28T03:58:34.784Z,6
2023-04-28T04:00:33.869Z,6.1
2023-04-28T04:02:33.692Z,5.4
2023-04-28T04:04:34.369Z,6.3
2023-04-28T04:06:35.194Z,5.8
2023-04-28T04:08:34.817Z,5.5
2023-04-28T04:11:00.667Z,5.5
2023-04-28T04:12:35.514Z,5.2
2023-04-28T04:14:35.887Z,5.5
2023-04-28T04:16:36.665Z,5.5
2023-04-28T04:18:50.273Z,5.8
2023-04-28T04:20:37.685Z,6.2
2023-04-28T04:22:37.176Z,6.1
2023-04-28T04:24:37.693Z,6.4
2023-04-28T04:26:47.322Z,6.4
2023-04-28T04:28:39.726Z,6
2023-04-28T04:30:43.690Z,6.5
2023-04-28T04:32:39.088Z,6.6
2023-04-28T04:34:39.416Z,6.2
2023-04-28T04:36:42.972Z,6.5
2023-04-28T04:38:46.528Z,6.1
2023-04-28T04:40:40.359Z,6.1
2023-04-28T04:42:43.449Z,6.3
2023-04-28T04:44:44.649Z,6.2
2023-04-28T04:46:41.504Z,6.1
2023-04-28T04:48:42.217Z,6.2
2023-04-28T04:50:42.229Z,6.8
2023-04-28T04:52:42.871Z,6.3
2023-04-28T04:54:43.087Z,6.3
2023-04-28T04:56:43.640Z,6.6
2023-04-28T04:58:59.554Z,7
2023-04-28T05:00:44.781Z,6.4
2023-04-28T05:02:44.788Z,6.3
2023-04-28T05:04:45.359Z,6.3
2023-04-28T05:06:45.540Z,6.6
2023-04-28T05:08:45.902Z,7.7
2023-04-28T05:10:46.262Z,6.3
2023-04-28T05:12:48.931Z,6.7
2023-04-28T05:14:47.105Z,6.7
2023-04-28T05:16:50.696Z,6.5
2023-04-28T05:18:48.511Z,6.7
2023-04-28T05:20:51.644Z,6.5
2023-04-28T05:22:48.828Z,6.2
2023-04-28T05:24:49.192Z,6.7
2023-04-28T05:26:50.173Z,6.8
2023-04-28T05:28:50.440Z,17.2
2023-04-28T05:30:50.772Z,6.5
2023-04-28T05:32:50.959Z,6.9
2023-04-28T05:34:51.352Z,7.9
2023-04-28T05:36:52.482Z,7
2023-04-28T05:38:52.508Z,7.7
2023-04-28T05:40:52.582Z,6.3
2023-04-28T05:42:52.886Z,6.6
2023-04-28T05:44:53.581Z,6.2
2023-04-28T05:46:57.441Z,6.7
2023-04-28T05:48:54.660Z,6.2
2023-04-28T05:50:55.387Z,7
2023-04-28T05:52:55.211Z,7
2023-04-28T05:54:55.562Z,7
2023-04-28T05:56:56.026Z,7
2023-04-28T05:58:56.755Z,6.9
2023-04-28T06:00:56.986Z,6.6
2023-04-28T06:02:57.491Z,7.1
2023-04-28T06:04:58.031Z,6.5
2023-04-28T06:06:58.702Z,6.3
2023-04-28T06:08:59.711Z,6.6
2023-04-28T06:10:59.293Z,6.2
2023-04-28T06:12:59.484Z,6.4
2023-04-28T06:15:00.320Z,6.4
2023-04-28T06:17:00.705Z,5.6
2023-04-28T06:19:01.484Z,6.1
2023-04-28T06:21:01.738Z,5.4
2023-04-28T06:23:02.366Z,5.3
2023-04-28T06:25:08.816Z,5.3
2023-04-28T06:27:03.731Z,6.1
2023-04-28T06:29:04.500Z,5.3
2023-04-28T06:31:04.751Z,5.2
2023-04-28T06:33:05.437Z,5
2023-04-28T06:35:06.882Z,4.7
2023-04-28T06:37:06.675Z,4.7
2023-04-28T06:39:08.163Z,4.8
2023-04-28T06:41:08.568Z,4.2
2023-04-28T06:43:13.565Z,4.4
2023-04-28T06:45:11.131Z,4
2023-04-28T06:47:12.521Z,8
2023-04-28T06:49:10.835Z,3.1
2023-04-28T06:51:11.035Z,3.5
2023-04-28T06:53:11.777Z,3.7
2023-04-28T06:55:15.453Z,3.5
2023-04-28T06:57:12.765Z,2.8
2023-04-28T06:59:13.547Z,3.6
2023-04-28T07:01:14.197Z,4.1
2023-04-28T07:03:14.702Z,3.4
2023-04-28T07:05:16.498Z,3.6
2023-04-28T07:07:15.722Z,4
2023-04-28T07:09:16.287Z,3.9
2023-04-28T07:11:16.903Z,3.8
2023-04-28T07:13:17.547Z,3.8
2023-04-28T07:15:18.130Z,3.5
2023-04-28T07:17:18.533Z,3.3
2023-04-28T07:19:19.207Z,3.6
2023-04-28T07:21:19.765Z,3.3
2023-04-28T07:23:20.096Z,3.4
2023-04-28T07:25:20.755Z,3.7
2023-04-28T07:27:21.313Z,3.5
2023-04-28T07:29:22.030Z,3.3
2023-04-28T07:31:22.335Z,2.9
2023-04-28T07:33:22.837Z,3.3
2023-04-28T07:35:23.212Z,7.4
2023-04-28T07:37:23.665Z,3.3
2023-04-28T07:39:24.107Z,3.8
2023-04-28T07:41:26.445Z,4.5
2023-04-28T07:43:24.985Z,3.7
2023-04-28T07:45:25.488Z,3.9
2023-04-28T07:47:25.983Z,3.7
2023-04-28T07:49:27.409Z,4.1
2023-04-28T07:51:27.133Z,4
2023-04-28T07:53:27.237Z,3.4
2023-04-28T07:55:27.538Z,3.3
2023-04-28T07:57:28.038Z,2.6
2023-04-28T07:59:28.476Z,2.4
2023-04-28T08:01:29.023Z,2.3
2023-04-28T08:03:29.436Z,2.4
2023-04-28T08:05:29.893Z,2.3
2023-04-28T08:07:30.060Z,2.4
2023-04-28T08:09:30.958Z,2.4
2023-04-28T08:11:30.898Z,2.4
2023-04-28T08:13:32.509Z,2.8
2023-04-28T08:15:31.930Z,2.6
2023-04-28T08:17:32.256Z,3.1
2023-04-28T08:19:32.668Z,2.6
2023-04-28T08:21:33.355Z,2.4
2023-04-28T08:23:33.449Z,2.5
2023-04-28T08:25:33.974Z,2.2
2023-04-28T08:27:34.524Z,2.2
2023-04-28T08:29:35.215Z,2.3
2023-04-28T08:31:35.415Z,2.6
2023-04-28T08:33:35.860Z,2.4
2023-04-28T08:35:36.288Z,2.5
2023-04-28T08:37:36.788Z,2.5
2023-04-28T08:39:37.857Z,2.6
2023-04-28T08:41:38.772Z,3.1
2023-04-28T08:43:38.094Z,2.5
2023-04-28T08:45:41.669Z,2.6
2023-04-28T08:47:40.110Z,2.6
2023-04-28T08:49:40.542Z,2.7
2023-04-28T08:51:45.712Z,2.5
2023-04-28T08:54:15.002Z,2.8
2023-04-28T08:55:41.241Z,2.7
2023-04-28T08:57:43.437Z,2.4
2023-04-28T08:59:41.770Z,2.8
2023-04-28T09:01:42.119Z,2.8
2023-04-28T09:03:43.039Z,3.1
2023-04-28T09:05:43.072Z,2.7
2023-04-28T09:07:46.113Z,2.7
2023-04-28T09:09:43.953Z,2.7
2023-04-28T09:11:51.251Z,3.2
2023-04-28T09:13:44.590Z,2.7
2023-04-28T09:15:45.084Z,2.8
2023-04-28T09:17:49.396Z,3.2
2023-04-28T09:19:45.865Z,2.8
2023-04-28T09:21:47.753Z,3.1
2023-04-28T09:23:48.035Z,3.2
2023-04-28T09:25:57.953Z,3.5
2023-04-28T09:27:47.753Z,3.5
2023-04-28T09:29:53.601Z,3.4
2023-04-28T09:31:48.411Z,3.2
2023-04-28T09:33:56.785Z,3.3
2023-04-28T09:35:49.525Z,2.8
2023-04-28T09:37:57.822Z,2.8
2023-04-28T09:39:52.067Z,2.4
2023-04-28T09:41:50.634Z,2.7
2023-04-28T09:43:50.942Z,2.1
2023-04-28T09:45:51.597Z,2.1
2023-04-28T09:47:51.868Z,2
2023-04-28T09:49:54.037Z,2
2023-04-28T09:51:52.837Z,1.6
2023-04-28T09:53:53.817Z,2.5
2023-04-28T09:55:55.612Z,2.6
2023-04-28T09:57:54.908Z,1.7
2023-04-28T09:59:54.548Z,1.6
2023-04-28T10:01:55.177Z,1.5
2023-04-28T10:03:57.293Z,1.7
2023-04-28T10:05:57.314Z,1.5
2023-04-28T10:07:56.381Z,1.8
2023-04-28T10:09:57.182Z,1.9
2023-04-28T10:11:58.711Z,2
2023-04-28T10:13:58.868Z,1.8
2023-04-28T10:15:59.031Z,1.8
2023-04-28T10:17:59.532Z,1.8
2023-04-28T10:20:00.043Z,2.3
2023-04-28T10:22:14.220Z,1.9
2023-04-28T10:24:09.975Z,1.9
2023-04-28T10:26:00.254Z,2.1
2023-04-28T10:28:04.214Z,2.4
2023-04-28T10:32:17.258Z,2.2
2023-04-28T10:34:21.950Z,2.4
2023-04-28T10:36:02.305Z,2.2
2023-04-28T10:38:03.681Z,1.9
2023-04-28T10:40:33.539Z,2.1
2023-04-28T10:42:03.561Z,2.3
2023-04-28T10:44:33.406Z,2.1
2023-04-28T10:46:06.362Z,2.1
2023-04-28T10:48:04.854Z,2.1
2023-04-28T10:50:07.844Z,2.3
2023-04-28T10:52:41.342Z,2.4
2023-04-28T10:54:13.321Z,1.9
2023-04-28T10:56:06.472Z,2.5
2023-04-28T10:58:35.758Z,2
2023-04-28T11:00:29.364Z,1.9
2023-04-28T11:02:36.958Z,1.8
2023-04-28T11:04:09.193Z,2.1
2023-04-28T11:06:23.530Z,2.3
2023-04-28T11:08:30.816Z,2.1
2023-04-28T11:10:09.047Z,2.2
2023-04-28T11:12:09.377Z,1.8
2023-04-28T11:14:31.631Z,2.3
2023-04-28T11:16:10.343Z,2
2023-04-28T11:18:19.948Z,2.2
2023-04-28T11:20:12.838Z,4.2
2023-04-28T11:22:16.226Z,2.1
2023-04-28T11:24:11.763Z,2.3
2023-04-28T11:26:12.483Z,2.2
2023-04-28T11:28:12.481Z,1.9
2023-04-28T11:30:22.902Z,2.6
2023-04-28T11:32:13.258Z,2.6
2023-04-28T11:34:19.509Z,1.7
2023-04-28T11:36:23.212Z,2.2
2023-04-28T11:38:15.576Z,2.1
2023-04-28T11:40:16.179Z,2
2023-04-28T11:42:15.556Z,1.9
2023-04-28T11:44:18.018Z,2.1
2023-04-28T11:46:17.514Z,2.3
2023-04-28T11:48:20.907Z,2.3
2023-04-28T11:50:16.992Z,2
2023-04-28T11:52:17.336Z,2.1
2023-04-28T11:54:22.198Z,1.9
2023-04-28T11:56:18.100Z,2.1
2023-04-28T11:58:19.332Z,2.5
2023-04-28T12:00:20.437Z,2.2
2023-04-28T12:02:25.988Z,1.9
2023-04-28T12:04:28.416Z,2.1
2023-04-28T12:06:20.002Z,2.3
2023-04-28T12:08:27.909Z,2
2023-04-28T12:10:21.159Z,2.1
2023-04-28T12:12:40.073Z,1.9
2023-04-28T12:14:21.791Z,2
2023-04-28T12:16:37.441Z,2
2023-04-28T12:18:22.502Z,2.4
2023-04-28T12:20:39.078Z,2.7
2023-04-28T12:22:24.663Z,2.8
2023-04-28T12:24:23.678Z,2.5
2023-04-28T12:26:25.107Z,2.3
2023-04-28T12:28:35.919Z,2.4
2023-04-28T12:30:25.600Z,2.4
2023-04-28T12:32:37.870Z,2.4
2023-04-28T12:34:25.698Z,2.7
2023-04-28T12:36:26.020Z,3
2023-04-28T12:38:26.756Z,2.3
2023-04-28T12:40:27.019Z,2.4
2023-04-28T12:42:27.137Z,2.3
2023-04-28T12:44:27.994Z,2.4
2023-04-28T12:46:28.057Z,2.6
2023-04-28T12:48:28.422Z,2.4
2023-04-28T12:50:28.615Z,2.3
2023-04-28T12:52:29.052Z,2.5
2023-04-28T12:54:29.954Z,2.8
2023-04-28T12:56:29.747Z,2.7
2023-04-28T12:58:30.288Z,2.8
2023-04-28T13:00:30.667Z,2.6
2023-04-28T13:02:31.055Z,2.6
2023-04-28T13:04:31.727Z,2.4
2023-04-28T13:06:31.983Z,2.6
2023-04-28T13:08:32.126Z,3
2023-04-28T13:10:32.489Z,3
2023-04-28T13:12:32.722Z,2.8
2023-04-28T13:14:33.002Z,4.4
2023-04-28T13:16:34.059Z,2.9
2023-04-28T13:18:33.747Z,3.5
2023-04-28T13:20:34.086Z,2.6
2023-04-28T13:22:34.500Z,3
2023-04-28T13:24:34.895Z,3.2
2023-04-28T13:26:35.606Z,2.8
2023-04-28T13:28:35.822Z,3
2023-04-28T13:30:36.243Z,2.9
2023-04-28T13:32:36.391Z,2.9
2023-04-28T13:34:37.726Z,3.3
2023-04-28T13:36:37.106Z,3
2023-04-28T13:38:37.559Z,2.8
2023-04-28T13:40:37.965Z,3.5
2023-04-28T13:42:38.191Z,2.9
2023-04-28T13:44:38.474Z,3.1
2023-04-28T13:46:38.994Z,3.3
2023-04-28T13:48:39.999Z,3.8
2023-04-28T13:50:39.748Z,3.3
2023-04-28T13:52:40.008Z,3.1
2023-04-28T13:54:41.419Z,3.2
2023-04-28T13:56:40.834Z,3.1
2023-04-28T13:58:41.178Z,3.5
2023-04-28T14:00:41.376Z,3.7
2023-04-28T14:02:42.467Z,3.3
2023-04-28T14:04:42.212Z,5.2
2023-04-28T14:06:42.503Z,4
2023-04-28T14:08:42.959Z,4.2
2023-04-28T14:10:43.253Z,3.6
2023-04-28T14:12:43.599Z,3.1
2023-04-28T14:14:46.741Z,3
2023-04-28T14:16:44.284Z,2.8
2023-04-28T14:18:44.763Z,2.8
2023-04-28T14:20:45.357Z,2.7
2023-04-28T14:22:45.242Z,2.4
2023-04-28T14:24:45.932Z,2.1
2023-04-28T14:26:46.638Z,2.7
2023-04-28T14:28:46.526Z,3.3
2023-04-28T14:30:46.797Z,2.4
2023-04-28T14:32:47.327Z,2.5
2023-04-28T14:34:47.527Z,4.9
2023-04-28T14:36:47.742Z,2.6
2023-04-28T14:38:48.101Z,2.7
2023-04-28T14:40:48.344Z,2.1
2023-04-28T14:42:49.076Z,2.9
2023-04-28T14:44:49.462Z,2.6
2023-04-28T14:46:49.439Z,2.3
2023-04-28T14:48:50.211Z,2.2
2023-04-28T14:50:50.203Z,2.9
2023-04-28T14:52:50.379Z,3
2023-04-28T14:54:50.717Z,2.5
2023-04-28T14:56:51.089Z,2.2
2023-04-28T14:58:51.587Z,2.6
2023-04-28T15:00:51.694Z,2.5
2023-04-28T15:02:52.100Z,2.6
2023-04-28T15:04:52.677Z,3
2023-04-28T15:06:52.506Z,3.3
2023-04-28T15:08:53.024Z,4.1
2023-04-28T15:10:53.300Z,4.3
2023-04-28T15:12:53.518Z,4.7
2023-04-28T15:14:54.056Z,4.9
2023-04-28T15:16:54.273Z,5.1
2023-04-28T15:18:54.539Z,5.2
2023-04-28T15:20:54.949Z,6.7
2023-04-28T15:22:55.113Z,5.6
2023-04-28T15:24:55.441Z,6
2023-04-28T15:26:55.744Z,6.3
2023-04-28T15:28:56.422Z,6.3
2023-04-28T15:30:56.369Z,6.7
2023-04-28T15:32:56.632Z,7.3
2023-04-28T15:34:56.942Z,7.6
2023-04-28T15:36:57.108Z,7.5
2023-04-28T15:38:57.566Z,8.2
2023-04-28T15:40:57.739Z,8.4
2023-04-28T15:42:57.939Z,8.8
2023-04-28T15:44:58.402Z,10.8
2023-04-28T15:46:58.516Z,10.2
2023-04-28T15:48:58.860Z,9.7
2023-04-28T15:50:59.175Z,10.5
2023-04-28T15:52:59.319Z,10
2023-04-28T15:54:59.657Z,9.8
2023-04-28T15:56:59.885Z,9.8
2023-04-28T15:59:00.116Z,10.8
2023-04-28T16:01:00.536Z,10
2023-04-28T16:03:00.797Z,10.6
2023-04-28T16:05:00.992Z,10
2023-04-28T16:07:01.162Z,10.8
2023-04-28T16:09:01.617Z,10.9
2023-04-28T16:11:02.249Z,11.4
2023-04-28T16:13:02.070Z,10.2
2023-04-28T16:15:02.975Z,8.8
2023-04-28T16:17:02.612Z,8.2
2023-04-28T16:19:02.889Z,8.3
2023-04-28T16:21:03.301Z,8.3
2023-04-28T16:23:05.930Z,8.3
2023-04-28T16:25:04.027Z,8.8
2023-04-28T16:27:03.743Z,7.9
2023-04-28T16:29:04.075Z,8.3
2023-04-28T16:31:04.846Z,7.9
2023-04-28T16:33:05.573Z,7.5
2023-04-28T16:35:05.110Z,7
2023-04-28T16:37:05.723Z,7.2
2023-04-28T16:39:05.258Z,6.6
2023-04-28T16:41:06.023Z,6.2
2023-04-28T16:43:05.516Z,6.2
2023-04-28T16:45:06.702Z,6.4
2023-04-28T16:47:06.064Z,6.7
2023-04-28T16:49:06.339Z,6.4
2023-04-28T16:51:09.514Z,6.8
2023-04-28T16:53:06.858Z,6.2
2023-04-28T16:55:07.770Z,6.2
2023-04-28T16:57:06.992Z,6.3
2023-04-28T16:59:07.341Z,6.4
2023-04-28T17:01:07.533Z,6.7
2023-04-28T17:03:07.781Z,6.1
2023-04-28T17:05:08.980Z,6.7
2023-04-28T17:07:07.967Z,6
2023-04-28T17:09:08.192Z,7.4
2023-04-28T17:11:08.449Z,6.8
2023-04-28T17:13:10.027Z,6.8
2023-04-28T17:15:12.922Z,7.2
2023-04-28T17:17:09.328Z,7.1
2023-04-28T17:19:09.384Z,6.7
2023-04-28T17:21:09.309Z,6.9
2023-04-28T17:23:09.555Z,6.3
2023-04-28T17:25:10.835Z,7.2
2023-04-28T17:27:09.806Z,6.7
2023-04-28T17:29:10.070Z,6.4
2023-04-28T17:31:10.330Z,6.1
2023-04-28T17:33:10.682Z,5.4
2023-04-28T17:35:10.653Z,4.8
2023-04-28T17:37:10.726Z,5.3
2023-04-28T17:39:11.050Z,5.3
2023-04-28T17:41:11.153Z,5
2023-04-28T17:43:11.136Z,5.4
2023-04-28T17:45:11.613Z,4.9
2023-04-28T17:47:11.560Z,5
2023-04-28T17:49:11.884Z,5.3
2023-04-28T17:51:12.470Z,5.2
2023-04-28T17:53:12.369Z,5.5
2023-04-28T17:55:12.705Z,5.9
2023-04-28T17:57:12.512Z,5.4
2023-04-28T17:59:12.702Z,5.4
2023-04-28T18:01:13.288Z,5.4
2023-04-28T18:03:12.988Z,4.4
2023-04-28T18:05:13.094Z,4.4
2023-04-28T18:07:13.060Z,5
2023-04-28T18:09:13.450Z,5.1
2023-04-28T18:11:13.418Z,4.8
2023-04-28T18:13:13.606Z,5.2
2023-04-28T18:15:13.920Z,4
2023-04-28T18:17:13.830Z,3.8
2023-04-28T18:19:14.112Z,3.7
2023-04-28T18:21:14.734Z,3.3
2023-04-28T18:23:14.381Z,3.4
2023-04-28T18:25:14.419Z,3.5
2023-04-28T18:27:14.691Z,3.4
2023-04-28T18:29:15.030Z,3.5
2023-04-28T18:31:14.869Z,3.3
2023-04-28T18:33:15.413Z,3.4
2023-04-28T18:35:15.283Z,3.1
2023-04-28T18:37:15.311Z,2.5
2023-04-28T18:39:15.517Z,2.4
2023-04-28T18:41:17.268Z,2.4
2023-04-28T18:43:15.708Z,2.4
2023-04-28T18:45:15.805Z,3.3
2023-04-28T18:47:16.061Z,2.9
2023-04-28T18:49:16.293Z,1.9
2023-04-28T18:51:16.800Z,2.2
2023-04-28T18:53:17.008Z,2
2023-04-28T18:55:16.575Z,1.9
2023-04-28T18:57:16.732Z,1.9
2023-04-28T18:59:17.081Z,1.7
2023-04-28T19:01:17.761Z,1.7
2023-04-28T19:03:17.310Z,1.4
2023-04-28T19:05:17.370Z,1.4
2023-04-28T19:07:17.347Z,1.4
2023-04-28T19:09:17.489Z,1.4
2023-04-28T19:11:17.832Z,1.1
2023-04-28T19:13:17.789Z,0.9
2023-04-28T19:15:18.044Z,0.7
2023-04-28T19:17:18.180Z,0.7
2023-04-28T19:19:18.228Z,0.7
2023-04-28T19:21:18.362Z,0.9
2023-04-28T19:23:18.534Z,0.8
2023-04-28T19:25:18.545Z,0.7
2023-04-28T19:27:18.737Z,0.9
2023-04-28T19:29:20.294Z,0.8
2023-04-28T19:31:19.002Z,0.8
2023-04-28T19:33:19.292Z,0.7
2023-04-28T19:35:19.389Z,0.7
2023-04-28T19:37:19.404Z,0.6
2023-04-28T19:39:19.466Z,0.7
2023-04-28T19:41:20.254Z,0.6
2023-04-28T19:43:19.727Z,0.7
2023-04-28T19:45:20.065Z,0.7
2023-04-28T19:47:22.853Z,0.9
2023-04-28T19:49:20.080Z,0.6
2023-04-28T19:51:20.432Z,1.1
2023-04-28T19:53:20.510Z,0.7
2023-04-28T19:55:21.143Z,0.7
2023-04-28T19:57:20.681Z,0.5
2023-04-28T19:59:21.181Z,0.7
2023-04-28T20:01:21.867Z,0.5
2023-04-28T20:03:21.253Z,0.6
2023-04-28T20:05:21.371Z,0.5
2023-04-28T20:07:21.516Z,0.6
2023-04-28T20:09:21.455Z,0.5
2023-04-28T20:11:21.541Z,0.5
2023-04-28T20:13:21.792Z,0.6
2023-04-28T20:15:21.847Z,0.7
2023-04-28T20:17:22.136Z,0.6
2023-04-28T20:19:22.137Z,0.5
2023-04-28T20:21:22.236Z,0.6
2023-04-28T20:23:22.493Z,0.6
2023-04-28T20:25:22.486Z,0.5
2023-04-28T20:27:22.593Z,0.5
2023-04-28T20:29:22.784Z,0.6
2023-04-28T20:31:23.327Z,0.5
2023-04-28T20:33:23.797Z,0.5
2023-04-28T20:35:23.293Z,0.6
2023-04-28T20:37:23.344Z,0.4
2023-04-28T20:39:23.598Z,0.4
2023-04-28T20:41:23.715Z,0.5
2023-04-28T20:43:23.892Z,0.4
2023-04-28T20:45:23.957Z,0.5
2023-04-28T20:47:24.189Z,0.4
2023-04-28T20:49:24.154Z,0.4
2023-04-28T20:51:24.800Z,0.4
2023-04-28T20:53:24.620Z,0.5
2023-04-28T20:55:24.715Z,0.6
2023-04-28T20:57:24.780Z,0.6
2023-04-28T20:59:24.796Z,0.5
2023-04-28T21:01:25.032Z,0.5
2023-04-28T21:03:25.229Z,0.5
2023-04-28T21:05:25.260Z,0.4
2023-04-28T21:07:25.297Z,0.5
2023-04-28T21:09:25.670Z,0.7
2023-04-28T21:11:25.634Z,0.5
2023-04-28T21:13:25.707Z,0.7
2023-04-28T21:15:25.907Z,0.6
2023-04-28T21:17:26.055Z,0.6
2023-04-28T21:19:26.051Z,0.6
2023-04-28T21:21:26.411Z,0.5
2023-04-28T21:23:26.462Z,0.7
2023-04-28T21:25:26.582Z,0.7
2023-04-28T21:27:26.772Z,0.7
2023-04-28T21:29:26.688Z,1.3
2023-04-28T21:31:27.186Z,1.1
2023-04-28T21:33:27.471Z,1
2023-04-28T21:35:27.036Z,1.2
2023-04-28T21:37:27.260Z,1.3
2023-04-28T21:39:27.443Z,1.2
2023-04-28T21:41:27.558Z,1.5
2023-04-28T21:43:27.938Z,1.6
2023-04-28T21:45:27.813Z,1.9
2023-04-28T21:47:27.901Z,2
2023-04-28T21:49:28.009Z,2.1
2023-04-28T21:51:28.578Z,1.7
2023-04-28T21:53:28.323Z,1.6
2023-04-28T21:55:28.354Z,1.5
2023-04-28T21:57:28.484Z,1.6
2023-04-28T21:59:28.556Z,1.7
2023-04-28T22:01:29.448Z,1.4
2023-04-28T22:03:29.285Z,1.4
2023-04-28T22:05:28.843Z,1.2
2023-04-28T22:07:29.901Z,1
2023-04-28T22:09:30.077Z,0.9
2023-04-28T22:11:29.454Z,0.9
2023-04-28T22:13:29.454Z,1
2023-04-28T22:15:29.418Z,1
2023-04-28T22:17:29.493Z,1
2023-04-28T22:19:29.496Z,1.4
2023-04-28T22:21:29.965Z,2
2023-04-28T22:23:29.769Z,1.2
2023-04-28T22:25:29.881Z,1
2023-04-28T22:27:29.989Z,0.8
2023-04-28T22:29:30.080Z,0.8
2023-04-28T22:31:30.579Z,0.8
2023-04-28T22:33:30.432Z,0.8
2023-04-28T22:35:30.343Z,0.9
2023-04-28T22:37:30.434Z,0.7
2023-04-28T22:39:30.597Z,0.9
2023-04-28T22:41:30.723Z,0.8
2023-04-28T22:43:30.682Z,0.9
2023-04-28T22:45:30.934Z,0.8
2023-04-28T22:47:30.988Z,0.7
2023-04-28T22:49:30.998Z,0.8
2023-04-28T22:51:31.175Z,0.6
2023-04-28T22:53:31.296Z,0.7
2023-04-28T22:55:31.400Z,0.5
2023-04-28T22:57:31.529Z,0.7
2023-04-28T22:59:32.602Z,0.6
2023-04-28T23:01:31.529Z,0.6
2023-04-28T23:03:31.850Z,0.6
2023-04-28T23:05:31.696Z,0.5
2023-04-28T23:07:31.792Z,0.5
2023-04-28T23:09:32.028Z,0.5
2023-04-28T23:11:32.003Z,0.4
2023-04-28T23:13:32.306Z,0.4
2023-04-28T23:15:32.201Z,0.4
2023-04-28T23:17:32.324Z,0.4
2023-04-28T23:19:32.321Z,0.3
2023-04-28T23:21:32.470Z,0.4
2023-04-28T23:23:32.470Z,0.4
2023-04-28T23:25:32.572Z,0.4
2023-04-28T23:27:33.378Z,0.4
2023-04-28T23:29:33.021Z,0.4
2023-04-28T23:31:33.013Z,0.3
2023-04-28T23:33:32.976Z,0.3
2023-04-28T23:35:32.993Z,0.4
2023-04-28T23:37:33.052Z,0.3
2023-04-28T23:39:33.149Z,0.4
2023-04-28T23:41:33.259Z,0.3
2023-04-28T23:43:33.392Z,0.3
2023-04-28T23:45:33.414Z,0.2
2023-04-28T23:47:33.534Z,0.4
2023-04-28T23:49:33.594Z,0.3
2023-04-28T23:51:33.659Z,0.4
2023-04-28T23:53:33.733Z,0.5
2023-04-28T23:55:34.152Z,0.4
2023-04-28T23:57:33.993Z,0.4
2023-04-28T23:59:34.010Z,0.4
